createdAt,value
2018-02-02T00:01:08.957Z,3.67
2018-02-02T00:03:38.218Z,2.65
2018-02-02T00:06:06.509Z,3.08
2018-02-02T00:08:34.809Z,3.00
2018-02-02T00:11:03.129Z,2.85
2018-02-02T00:13:31.478Z,2.70
2018-02-02T00:18:39.477Z,3.15
2018-02-02T00:21:07.892Z,2.95
2018-02-02T00:23:36.443Z,3.42
2018-02-02T00:26:04.777Z,2.85
2018-02-02T00:28:33.092Z,3.80
2018-02-02T00:31:02.156Z,3.35
2018-02-02T00:33:30.479Z,4.20
2018-02-02T00:35:58.783Z,2.95
2018-02-02T00:38:27.929Z,3.45
2018-02-02T00:40:56.252Z,3.90
2018-02-02T00:43:24.587Z,4.05
2018-02-02T00:45:53.670Z,3.12
2018-02-02T00:48:22.011Z,3.75
2018-02-02T00:50:55.808Z,3.37
2018-02-02T00:53:25.158Z,3.55
2018-02-02T00:55:53.497Z,3.90
2018-02-02T00:58:22.565Z,3.87
2018-02-02T01:00:50.904Z,4.20
2018-02-02T01:03:19.958Z,3.87
2018-02-02T01:05:48.293Z,4.70
2018-02-02T01:08:17.368Z,4.05
2018-02-02T01:10:45.772Z,4.90
2018-02-02T01:13:14.152Z,3.78
2018-02-02T01:15:42.471Z,3.97
2018-02-02T01:18:10.770Z,5.57
2018-02-02T01:20:39.120Z,4.00
2018-02-02T01:23:07.514Z,4.55
2018-02-02T01:25:35.896Z,4.87
2018-02-02T01:28:04.262Z,5.50
2018-02-02T01:30:32.549Z,5.03
2018-02-02T01:33:00.888Z,5.12
2018-02-02T01:35:29.239Z,4.68
2018-02-02T01:37:57.562Z,4.87
2018-02-02T01:40:25.905Z,5.95
2018-02-02T01:42:54.231Z,4.45
2018-02-02T01:45:22.614Z,6.25
2018-02-02T02:01:24.248Z,4.80
2018-02-02T02:03:52.558Z,5.22
2018-02-02T02:06:20.859Z,6.10
2018-02-02T02:08:49.199Z,6.05
2018-02-02T02:11:17.501Z,5.47
2018-02-02T02:13:45.808Z,6.50
2018-02-02T02:16:14.198Z,5.47
2018-02-02T02:18:42.813Z,6.75
2018-02-02T02:21:11.120Z,6.75
2018-02-02T02:23:39.416Z,6.80
2018-02-02T02:26:08.527Z,5.45
2018-02-02T02:28:37.584Z,5.53
2018-02-02T02:31:05.926Z,5.80
2018-02-02T02:33:35.016Z,7.00
2018-02-02T02:36:03.389Z,5.90
2018-02-02T02:38:31.701Z,6.57
2018-02-02T02:41:00.041Z,7.28
2018-02-02T02:43:28.380Z,6.47
2018-02-02T02:45:56.684Z,8.23
2018-02-02T02:48:25.799Z,6.70
2018-02-02T02:50:54.876Z,7.47
2018-02-02T02:53:23.228Z,7.43
2018-02-02T02:55:51.550Z,7.37
2018-02-02T02:58:19.896Z,7.55
2018-02-02T03:00:48.207Z,7.20
2018-02-02T03:03:16.550Z,8.02
2018-02-02T03:05:44.927Z,6.70
2018-02-02T03:08:13.217Z,7.55
2018-02-02T03:10:41.511Z,7.45
2018-02-02T03:13:09.916Z,6.12
2018-02-02T03:15:38.979Z,6.28
2018-02-02T03:18:07.316Z,6.32
2018-02-02T03:20:36.378Z,6.70
2018-02-02T03:23:04.737Z,6.90
2018-02-02T03:25:33.031Z,6.78
2018-02-02T03:28:01.345Z,8.50
2018-02-02T03:30:29.740Z,7.78
2018-02-02T03:32:58.066Z,9.30
2018-02-02T03:35:27.167Z,6.70
2018-02-02T03:37:55.503Z,6.95
2018-02-02T03:40:23.832Z,8.52
2018-02-02T03:42:52.133Z,8.55
2018-02-02T03:45:20.677Z,8.45
2018-02-02T03:47:48.975Z,8.70
2018-02-02T03:50:17.292Z,7.80
2018-02-02T03:52:45.636Z,7.45
2018-02-02T03:55:13.920Z,8.27
2018-02-02T03:57:42.269Z,7.60
2018-02-02T04:00:10.567Z,7.43
2018-02-02T04:02:39.141Z,7.93
2018-02-02T04:05:07.463Z,7.28
2018-02-02T04:07:35.781Z,6.90
2018-02-02T04:10:04.121Z,6.80
2018-02-02T04:12:32.413Z,6.12
2018-02-02T04:15:00.729Z,6.62
2018-02-02T04:17:29.796Z,6.62
2018-02-02T04:19:58.124Z,6.78
2018-02-02T04:22:27.279Z,5.68
2018-02-02T04:24:55.645Z,6.62
2018-02-02T04:27:23.940Z,6.80
2018-02-02T04:29:52.253Z,6.50
2018-02-02T04:32:20.544Z,8.63
2018-02-02T04:34:54.347Z,6.90
2018-02-02T04:37:22.688Z,6.35
2018-02-02T04:39:50.976Z,6.20
2018-02-02T04:42:19.367Z,6.60
2018-02-02T04:44:47.663Z,6.55
2018-02-02T04:47:15.984Z,7.35
2018-02-02T04:49:44.322Z,6.45
2018-02-02T04:52:12.611Z,6.93
2018-02-02T04:54:41.187Z,6.35
2018-02-02T04:57:09.463Z,6.00
2018-02-02T04:59:37.744Z,6.12
2018-02-02T05:02:06.060Z,5.78
2018-02-02T05:04:34.345Z,5.55
2018-02-02T05:07:02.685Z,6.90
2018-02-02T05:09:31.777Z,4.83
2018-02-02T05:12:00.839Z,6.05
2018-02-02T05:14:29.225Z,5.15
2018-02-02T05:16:57.574Z,7.07
2018-02-02T05:19:26.671Z,6.03
2018-02-02T05:21:54.992Z,5.18
2018-02-02T05:24:23.324Z,5.83
2018-02-02T05:26:51.650Z,3.15
2018-02-02T05:29:20.706Z,5.00
2018-02-02T05:31:49.020Z,5.10
2018-02-02T05:34:18.128Z,5.32
2018-02-02T05:36:46.800Z,5.37
2018-02-02T05:39:15.089Z,5.00
2018-02-02T05:41:43.392Z,4.43
2018-02-02T05:44:11.700Z,5.05
2018-02-02T05:46:39.993Z,4.65
2018-02-02T05:49:08.314Z,4.72
2018-02-02T05:51:37.397Z,5.60
2018-02-02T05:54:05.702Z,5.10
2018-02-02T05:56:34.043Z,4.93
2018-02-02T05:59:02.611Z,4.20
2018-02-02T06:01:30.934Z,5.37
2018-02-02T06:03:59.289Z,4.03
2018-02-02T06:06:27.624Z,4.95
2018-02-02T06:08:55.921Z,4.15
2018-02-02T06:11:24.297Z,4.07
2018-02-02T06:13:52.589Z,5.95
2018-02-02T06:16:20.884Z,5.10
2018-02-02T06:18:49.217Z,2.87
2018-02-02T06:21:17.517Z,4.93
2018-02-02T06:23:45.840Z,4.57
2018-02-02T06:26:14.151Z,5.55
2018-02-02T06:28:42.479Z,6.15
2018-02-02T06:31:11.573Z,4.00
2018-02-02T06:33:39.912Z,3.33
2018-02-02T06:36:08.196Z,5.15
2018-02-02T06:38:36.492Z,3.92
2018-02-02T06:41:04.857Z,4.65
2018-02-02T06:43:33.173Z,3.85
2018-02-02T06:46:01.526Z,5.50
2018-02-02T06:48:30.621Z,4.65
2018-02-02T06:50:58.941Z,5.77
2018-02-02T06:53:27.232Z,4.45
2018-02-02T06:55:55.552Z,2.40
2018-02-02T06:58:23.926Z,3.70
2018-02-02T07:00:52.309Z,5.05
2018-02-02T07:03:20.629Z,6.17
2018-02-02T07:05:48.908Z,5.45
2018-02-02T07:08:17.255Z,5.85
2018-02-02T07:10:46.341Z,6.62
2018-02-02T07:13:14.769Z,5.60
2018-02-02T07:15:43.066Z,6.20
2018-02-02T07:18:11.655Z,4.72
2018-02-02T07:20:40.717Z,5.45
2018-02-02T07:23:09.006Z,5.30
2018-02-02T07:25:37.337Z,4.55
2018-02-02T07:28:06.401Z,5.45
2018-02-02T07:30:34.731Z,5.50
2018-02-02T07:33:03.799Z,5.43
2018-02-02T07:35:32.159Z,5.28
2018-02-02T07:38:00.439Z,6.53
2018-02-02T07:40:28.774Z,6.80
2018-02-02T07:42:57.159Z,5.75
2018-02-02T07:45:25.495Z,5.53
2018-02-02T07:47:54.585Z,5.17
2018-02-02T07:50:22.916Z,5.40
2018-02-02T07:52:51.208Z,5.93
2018-02-02T07:55:19.538Z,7.10
2018-02-02T07:57:47.890Z,7.00
2018-02-02T08:00:16.500Z,5.72
2018-02-02T08:02:44.833Z,5.40
2018-02-02T08:05:13.891Z,5.85
2018-02-02T08:07:42.401Z,6.80
2018-02-02T08:10:10.691Z,5.47
2018-02-02T08:12:39.031Z,5.30
2018-02-02T08:15:08.297Z,6.30
2018-02-02T08:17:36.583Z,5.53
2018-02-02T08:20:04.936Z,6.70
2018-02-02T08:22:33.461Z,5.32
2018-02-02T08:25:01.753Z,6.55
2018-02-02T08:27:30.044Z,5.55
2018-02-02T08:29:58.516Z,7.37
2018-02-02T08:32:26.807Z,7.35
2018-02-02T08:34:55.132Z,7.72
2018-02-02T08:37:23.529Z,7.65
2018-02-02T08:39:51.900Z,6.62
2018-02-02T08:42:20.446Z,6.70
2018-02-02T08:44:54.878Z,8.10
2018-02-02T08:47:28.959Z,7.40
2018-02-02T08:49:58.263Z,6.07
2018-02-02T08:52:27.330Z,6.37
2018-02-02T08:54:55.654Z,6.05
2018-02-02T08:57:24.034Z,7.10
2018-02-02T08:59:52.524Z,4.90
2018-02-02T09:02:20.878Z,6.40
2018-02-02T09:04:49.206Z,6.20
2018-02-02T09:07:17.696Z,6.03
2018-02-02T09:09:45.976Z,5.20
2018-02-02T09:12:14.255Z,6.20
2018-02-02T09:14:43.033Z,5.00
2018-02-02T09:17:11.368Z,3.70
2018-02-02T09:19:39.707Z,5.87
2018-02-02T09:22:07.987Z,6.10
2018-02-02T09:24:36.327Z,6.70
2018-02-02T09:27:03.964Z,5.60
2018-02-02T09:29:32.322Z,5.67
2018-02-02T09:32:00.626Z,6.90
2018-02-02T09:34:29.145Z,4.67
2018-02-02T09:36:57.428Z,6.47
2018-02-02T09:39:25.718Z,5.77
2018-02-02T09:41:54.077Z,6.03
2018-02-02T09:44:22.368Z,5.27
2018-02-02T09:46:50.722Z,6.30
2018-02-02T09:49:19.010Z,4.90
2018-02-02T09:51:47.385Z,6.27
2018-02-02T09:54:15.681Z,5.77
2018-02-02T09:56:44.011Z,6.13
2018-02-02T09:59:12.360Z,4.95
2018-02-02T10:01:40.675Z,6.80
2018-02-02T10:04:09.122Z,5.70
2018-02-02T10:06:37.524Z,8.00
2018-02-02T10:09:05.864Z,4.20
2018-02-02T10:11:34.158Z,4.33
2018-02-02T10:14:02.635Z,5.57
2018-02-02T10:16:31.075Z,5.47
2018-02-02T10:19:00.147Z,5.97
2018-02-02T10:21:28.565Z,5.30
2018-02-02T10:23:57.672Z,4.80
2018-02-02T10:26:26.740Z,5.73
2018-02-02T10:28:55.139Z,4.57
2018-02-02T10:31:23.437Z,3.70
2018-02-02T10:33:51.736Z,4.87
2018-02-02T10:36:20.064Z,3.03
2018-02-02T10:38:48.356Z,5.45
2018-02-02T10:41:17.492Z,5.00
2018-02-02T10:43:45.775Z,6.90
2018-02-02T10:46:14.060Z,4.73
2018-02-02T10:48:42.364Z,4.33
2018-02-02T10:51:10.690Z,4.30
2018-02-02T10:53:39.291Z,5.10
2018-02-02T10:56:08.629Z,5.17
2018-02-02T10:58:37.025Z,5.10
2018-02-02T11:01:10.876Z,4.37
2018-02-02T11:03:54.891Z,6.27
2018-02-02T11:06:23.200Z,4.90
2018-02-02T11:08:51.532Z,6.03
2018-02-02T11:11:19.823Z,5.37
2018-02-02T11:13:48.108Z,3.80
2018-02-02T11:16:16.433Z,5.80
2018-02-02T11:18:45.554Z,6.30
2018-02-02T11:21:13.908Z,5.27
2018-02-02T11:23:42.217Z,5.30
2018-02-02T11:26:10.545Z,4.57
2018-02-02T11:28:38.886Z,4.53
2018-02-02T11:31:07.948Z,4.00
2018-02-02T11:33:36.318Z,3.50
2018-02-02T11:36:04.636Z,5.03
2018-02-02T11:38:32.969Z,6.00
2018-02-02T11:41:02.204Z,4.50
2018-02-02T11:43:30.572Z,3.93
2018-02-02T11:45:59.883Z,4.13
2018-02-02T11:48:29.020Z,4.63
2018-02-02T11:50:57.307Z,4.70
2018-02-02T11:53:25.592Z,4.10
2018-02-02T11:55:53.932Z,4.57
2018-02-02T11:58:23.047Z,4.47
2018-02-02T12:00:51.374Z,4.40
2018-02-02T12:03:19.676Z,4.43
2018-02-02T12:05:47.964Z,3.93
2018-02-02T12:08:17.088Z,3.60
2018-02-02T12:10:45.373Z,3.47
2018-02-02T12:13:13.891Z,3.70
2018-02-02T12:15:42.172Z,2.90
2018-02-02T12:18:10.480Z,3.43
2018-02-02T12:20:38.859Z,2.97
2018-02-02T12:36:34.760Z,3.17
2018-02-02T12:39:03.046Z,4.40
2018-02-02T12:41:31.412Z,4.03
2018-02-02T12:43:59.716Z,3.50
2018-02-02T12:46:28.008Z,3.63
2018-02-02T12:49:02.909Z,3.67
2018-02-02T12:51:31.980Z,3.53
2018-02-02T12:54:00.319Z,3.93
2018-02-02T12:56:28.647Z,3.93
2018-02-02T12:58:57.340Z,3.13
2018-02-02T13:01:25.647Z,4.03
2018-02-02T13:03:53.992Z,3.93
2018-02-02T13:06:22.316Z,4.43
2018-02-02T13:08:50.621Z,3.77
2018-02-02T13:11:18.984Z,4.50
2018-02-02T13:13:47.280Z,5.77
2018-02-02T13:16:15.615Z,5.23
2018-02-02T13:18:43.915Z,4.30
2018-02-02T13:21:13.062Z,4.80
2018-02-02T13:23:41.360Z,4.87
2018-02-02T13:26:09.645Z,5.50
2018-02-02T13:28:37.997Z,4.90
2018-02-02T13:31:07.065Z,5.17
2018-02-02T13:33:35.405Z,4.87
2018-02-02T13:36:04.501Z,4.53
2018-02-02T13:38:33.568Z,5.87
2018-02-02T13:41:01.924Z,4.73
2018-02-02T13:43:30.211Z,3.93
2018-02-02T13:45:58.505Z,2.37
2018-02-02T13:48:26.905Z,5.90
2018-02-02T13:50:56.105Z,5.60
2018-02-02T13:53:25.084Z,5.40
2018-02-02T13:55:54.150Z,5.57
2018-02-02T13:58:22.532Z,4.10
2018-02-02T14:00:50.868Z,5.70
2018-02-02T14:03:19.936Z,4.77
2018-02-02T14:05:48.232Z,3.75
2018-02-02T14:08:16.556Z,6.20
2018-02-02T14:10:44.899Z,6.57
2018-02-02T14:13:13.287Z,5.80
2018-02-02T14:15:41.661Z,5.40
2018-02-02T14:18:09.944Z,5.53
2018-02-02T14:20:38.284Z,6.17
2018-02-02T14:23:06.569Z,4.30
2018-02-02T14:25:34.916Z,5.43
2018-02-02T14:28:03.209Z,5.85
2018-02-02T14:30:31.556Z,4.40
2018-02-02T14:32:59.844Z,7.30
2018-02-02T14:35:28.260Z,6.57
2018-02-02T14:37:57.315Z,5.30
2018-02-02T14:40:25.684Z,5.97
2018-02-02T14:42:54.000Z,6.53
2018-02-02T14:45:22.330Z,5.47
2018-02-02T14:47:50.842Z,5.93
2018-02-02T14:50:19.190Z,6.47
2018-02-02T14:52:47.436Z,5.67
2018-02-02T14:55:15.752Z,5.50
2018-02-02T14:57:44.084Z,5.23
2018-02-02T15:00:12.391Z,6.33
2018-02-02T15:02:41.536Z,7.30
2018-02-02T15:05:09.837Z,6.80
2018-02-02T15:07:38.170Z,5.47
2018-02-02T15:10:07.318Z,4.90
2018-02-02T15:12:35.723Z,3.20
2018-02-02T15:15:04.032Z,5.20
2018-02-02T15:17:32.345Z,4.77
2018-02-02T15:20:01.499Z,4.50
2018-02-02T15:22:44.697Z,4.40
2018-02-02T15:25:13.748Z,4.50
2018-02-02T15:27:42.029Z,4.93
2018-02-02T15:30:10.531Z,5.90
2018-02-02T15:32:38.852Z,4.53
2018-02-02T15:35:07.204Z,4.63
2018-02-02T15:37:35.549Z,4.37
2018-02-02T15:40:03.841Z,4.20
2018-02-02T15:42:33.236Z,4.77
2018-02-02T15:45:01.520Z,4.80
2018-02-02T15:47:29.836Z,4.90
2018-02-02T15:49:58.157Z,4.30
2018-02-02T15:52:26.440Z,5.20
2018-02-02T15:54:55.568Z,4.50
2018-02-02T15:57:23.888Z,4.70
2018-02-02T15:59:52.189Z,4.23
2018-02-02T16:02:20.523Z,5.10
2018-02-02T16:04:48.820Z,4.30
2018-02-02T16:07:17.164Z,3.17
2018-02-02T16:09:45.504Z,3.60
2018-02-02T16:12:13.806Z,3.90
2018-02-02T16:14:42.125Z,3.70
2018-02-02T16:17:10.478Z,3.57
2018-02-02T16:19:38.765Z,4.10
2018-02-02T16:22:07.115Z,3.20
2018-02-02T16:24:35.420Z,3.03
2018-02-02T16:27:03.799Z,3.40
2018-02-02T16:29:33.075Z,2.70
2018-02-02T16:32:01.367Z,4.03
2018-02-02T16:34:29.892Z,4.23
2018-02-02T16:36:58.180Z,3.37
2018-02-02T16:39:26.505Z,3.30
2018-02-02T16:41:55.619Z,3.77
2018-02-02T16:44:23.941Z,4.43
2018-02-02T16:46:52.264Z,3.70
2018-02-02T16:49:20.602Z,3.97
2018-02-02T16:51:48.936Z,3.70
2018-02-02T16:54:17.263Z,3.57
2018-02-02T16:56:45.634Z,2.93
2018-02-02T16:59:14.838Z,3.63
2018-02-02T17:01:43.848Z,2.03
2018-02-02T17:04:12.180Z,2.80
2018-02-02T17:06:40.514Z,2.80
2018-02-02T17:09:08.792Z,2.67
2018-02-02T17:11:37.152Z,2.47
2018-02-02T17:14:05.514Z,2.90
2018-02-02T17:16:34.605Z,2.30
2018-02-02T17:19:02.928Z,2.63
2018-02-02T17:21:31.505Z,2.63
2018-02-02T17:24:00.582Z,3.00
2018-02-02T17:26:28.976Z,2.70
2018-02-02T17:29:03.165Z,3.20
2018-02-02T17:31:31.500Z,2.90
2018-02-02T17:33:59.784Z,2.50
2018-02-02T17:36:28.117Z,2.80
2018-02-02T17:38:56.708Z,3.80
2018-02-02T17:41:25.573Z,3.87
2018-02-02T17:43:53.880Z,3.10
2018-02-02T17:46:22.196Z,3.90
2018-02-02T17:48:51.255Z,3.13
2018-02-02T17:51:19.591Z,3.90
2018-02-02T17:53:48.649Z,3.40
2018-02-02T17:56:17.005Z,3.33
2018-02-02T17:58:45.360Z,3.43
2018-02-02T18:01:25.454Z,3.30
2018-02-02T18:03:54.496Z,3.70
2018-02-02T18:06:22.815Z,3.83
2018-02-02T18:08:51.239Z,3.80
2018-02-02T18:11:19.536Z,3.57
2018-02-02T18:13:48.592Z,4.30
2018-02-02T18:16:16.919Z,4.07
2018-02-02T18:18:48.709Z,3.73
2018-02-02T18:21:17.107Z,4.00
2018-02-02T18:23:45.523Z,4.30
2018-02-02T18:26:13.804Z,3.63
2018-02-02T18:28:42.100Z,4.63
2018-02-02T18:31:10.644Z,3.73
2018-02-02T18:33:38.952Z,4.63
2018-02-02T18:36:08.009Z,3.97
2018-02-02T18:38:36.332Z,4.70
2018-02-02T18:41:04.716Z,4.40
2018-02-02T18:43:33.031Z,4.27
2018-02-02T18:46:02.200Z,4.40
2018-02-02T18:48:30.521Z,4.47
2018-02-02T18:51:00.436Z,3.60
2018-02-02T18:53:28.757Z,3.93
2018-02-02T18:55:57.806Z,4.33
2018-02-02T18:58:26.163Z,3.80
2018-02-02T19:00:54.554Z,3.70
2018-02-02T19:03:22.932Z,4.60
2018-02-02T19:05:51.284Z,4.20
2018-02-02T19:08:19.596Z,4.70
2018-02-02T19:10:49.373Z,3.33
2018-02-02T19:13:17.651Z,3.80
2018-02-02T19:15:46.032Z,3.93
2018-02-02T19:18:14.327Z,4.50
2018-02-02T19:20:42.643Z,3.83
2018-02-02T19:23:10.998Z,4.00
2018-02-02T19:25:39.321Z,4.90
2018-02-02T19:28:07.904Z,3.90
2018-02-02T19:30:36.194Z,4.00
2018-02-02T19:33:04.591Z,4.13
2018-02-02T19:35:32.952Z,3.80
2018-02-02T19:38:01.275Z,3.80
2018-02-02T19:40:29.567Z,3.60
2018-02-02T19:42:57.904Z,5.07
2018-02-02T19:45:27.004Z,5.03
2018-02-02T19:47:56.119Z,4.20
2018-02-02T19:50:25.248Z,5.03
2018-02-02T19:52:54.312Z,4.20
2018-02-02T19:55:22.635Z,4.60
2018-02-02T19:57:58.319Z,4.90
2018-02-02T20:00:26.759Z,6.37
2018-02-02T20:02:55.046Z,4.90
2018-02-02T20:05:23.340Z,5.20
2018-02-02T20:07:51.658Z,4.90
2018-02-02T20:10:21.763Z,4.53
2018-02-02T20:12:50.091Z,3.47
2018-02-02T20:15:19.129Z,4.70
2018-02-02T20:17:47.436Z,5.00
2018-02-02T20:20:15.728Z,4.30
2018-02-02T20:22:44.020Z,4.00
2018-02-02T20:25:12.336Z,4.03
2018-02-02T20:27:41.585Z,3.90
2018-02-02T20:30:09.893Z,4.20
2018-02-02T20:32:38.228Z,4.20
2018-02-02T20:35:06.796Z,4.47
2018-02-02T20:37:35.932Z,3.93
2018-02-02T20:40:04.276Z,4.47
2018-02-02T20:42:33.330Z,3.90
2018-02-02T20:45:01.608Z,4.40
2018-02-02T20:47:29.973Z,4.40
2018-02-02T20:49:58.391Z,4.27
2018-02-02T20:52:26.691Z,5.40
2018-02-02T20:54:54.981Z,5.03
2018-02-02T20:57:23.304Z,3.80
2018-02-02T20:59:51.580Z,4.13
2018-02-02T21:02:20.711Z,4.30
2018-02-02T21:04:49.202Z,4.57
2018-02-02T21:07:17.546Z,5.20
2018-02-02T21:09:45.832Z,3.70
2018-02-02T21:12:14.119Z,6.60
2018-02-02T21:14:43.237Z,5.43
2018-02-02T21:17:11.548Z,5.37
2018-02-02T21:19:40.644Z,4.80
2018-02-02T21:22:08.963Z,5.40
2018-02-02T21:24:37.298Z,5.87
2018-02-02T21:27:05.592Z,5.20
2018-02-02T21:29:34.151Z,7.03
2018-02-02T21:32:02.432Z,4.30
2018-02-02T21:34:31.319Z,4.57
2018-02-02T21:37:01.769Z,5.30
2018-02-02T21:39:30.074Z,5.10
2018-02-02T21:41:58.376Z,5.40
2018-02-02T21:44:27.793Z,5.50
2018-02-02T21:46:56.130Z,5.17
2018-02-02T21:49:25.657Z,6.27
2018-02-02T21:51:54.756Z,4.57
2018-02-02T21:54:23.060Z,4.23
2018-02-02T21:56:52.150Z,5.33
2018-02-02T21:59:20.629Z,4.93
2018-02-02T22:01:49.046Z,5.20
2018-02-02T22:04:18.120Z,5.20
2018-02-02T22:06:46.403Z,4.20
2018-02-02T22:09:14.711Z,5.33
2018-02-02T22:11:43.036Z,4.80
2018-02-02T22:14:11.424Z,4.93
2018-02-02T22:16:40.484Z,4.87
2018-02-02T22:19:09.899Z,4.43
2018-02-02T22:21:38.211Z,5.73
2018-02-02T22:24:06.532Z,5.03
2018-02-02T22:26:35.605Z,4.73
2018-02-02T22:29:05.880Z,5.17
2018-02-02T22:31:34.971Z,5.37
2018-02-02T22:34:05.627Z,5.63
2018-02-02T22:36:33.991Z,6.63
2018-02-02T22:39:02.292Z,4.73
2018-02-02T22:41:30.581Z,4.23
2018-02-02T22:43:58.915Z,5.27
2018-02-02T22:46:27.193Z,5.20
2018-02-02T22:48:57.070Z,4.60
2018-02-02T22:51:25.364Z,5.70
2018-02-02T22:53:53.853Z,5.00
2018-02-02T22:56:22.181Z,4.73
2018-02-02T22:58:51.268Z,5.30
2018-02-02T23:01:20.370Z,4.77
2018-02-02T23:03:48.662Z,4.53
2018-02-02T23:06:17.180Z,5.60
2018-02-02T23:08:45.517Z,6.00
2018-02-02T23:11:13.839Z,4.70
2018-02-02T23:13:43.603Z,4.87
2018-02-02T23:16:11.932Z,3.90
2018-02-02T23:18:40.279Z,6.13
2018-02-02T23:21:08.606Z,5.27
2018-02-02T23:23:37.674Z,5.27
2018-02-02T23:26:06.011Z,5.73
2018-02-02T23:28:34.331Z,5.17
2018-02-02T23:31:03.372Z,4.70
2018-02-02T23:33:31.684Z,4.53
2018-02-02T23:35:59.999Z,5.70
2018-02-02T23:38:28.360Z,5.07
2018-02-02T23:40:56.650Z,5.33
2018-02-02T23:43:24.969Z,5.17
2018-02-02T23:45:53.280Z,6.00
2018-02-02T23:48:22.373Z,5.93
2018-02-02T23:50:50.705Z,5.27
2018-02-02T23:53:19.869Z,5.50
2018-02-02T23:55:48.207Z,6.00
2018-02-02T23:58:16.492Z,5.80
